Dieringer, Washington
Current Conditions -  °F | °C
As of 1:03 PM on Tuesday 25 Nov 2014 (Local Time) from KTCM Reporting Station
Light Rain Light Rain  
Wind Chill: 13°   Ceiling: 500
Heat Index: 13°   Visibility: 5mi
Dew Point: 13°   Wind: 9mph
Humidity: 100%   Direction: 210°SSW
Pressure: 30.2"   Gusts: NA
Location:  47.2018°N, 122.233°W
Report Text: KTCM 252103Z AUTO 21008KT 5SM -RA BR OVC005 13/13 A3020 RMK AO2 $
Loading
Personal Weather Stations






























Interactive Weather Map New forecast layout! Learn more

10-Day Weather Forecast

Advertisements
Track Severe Weather on mobile